createdAt,value
2022-12-25T00:00:40.713Z,3.57
2022-12-25T00:03:07.551Z,4.20
2022-12-25T00:05:37.206Z,3.47
2022-12-25T00:08:03.841Z,3.73
2022-12-25T00:10:30.270Z,3.50
2022-12-25T00:12:56.522Z,3.10
2022-12-25T00:15:22.918Z,2.90
2022-12-25T00:17:49.364Z,2.80
2022-12-25T00:20:15.792Z,2.60
2022-12-25T00:22:42.595Z,2.60
2022-12-25T00:25:09.377Z,2.30
2022-12-25T00:27:37.121Z,2.30
2022-12-25T00:30:10.193Z,2.63
2022-12-25T00:32:38.198Z,2.53
2022-12-25T00:35:05.523Z,2.80
2022-12-25T00:37:32.821Z,2.67
2022-12-25T00:39:59.062Z,2.50
2022-12-25T00:42:26.959Z,2.30
2022-12-25T00:44:53.677Z,2.40
2022-12-25T00:47:20.677Z,2.25
2022-12-25T00:49:47.452Z,2.50
2022-12-25T00:52:13.981Z,2.40
2022-12-25T00:54:40.454Z,2.40
2022-12-25T00:57:07.277Z,2.50
2022-12-25T00:59:34.217Z,2.40
2022-12-25T01:02:22.895Z,2.40
2022-12-25T01:04:51.153Z,2.22
2022-12-25T01:07:18.060Z,2.30
2022-12-25T01:10:03.610Z,2.20
2022-12-25T01:12:31.168Z,2.50
2022-12-25T01:14:57.523Z,2.50
2022-12-25T01:17:23.951Z,2.45
2022-12-25T01:19:50.452Z,2.37
2022-12-25T01:22:17.004Z,2.20
2022-12-25T01:24:43.719Z,2.20
2022-12-25T01:27:11.120Z,2.37
2022-12-25T01:29:38.180Z,2.30
2022-12-25T01:32:05.892Z,2.30
2022-12-25T01:34:32.369Z,2.20
2022-12-25T01:36:58.793Z,2.10
2022-12-25T01:39:25.931Z,2.12
2022-12-25T01:41:54.521Z,2.03
2022-12-25T01:47:53.641Z,2.10
2022-12-25T01:50:20.889Z,2.10
2022-12-25T01:52:47.843Z,2.22
2022-12-25T01:55:14.287Z,2.05
2022-12-25T01:57:40.487Z,2.20
2022-12-25T02:00:08.119Z,2.07
2022-12-25T02:02:34.422Z,2.10
2022-12-25T02:05:27.151Z,2.17
2022-12-25T02:07:53.663Z,2.10
2022-12-25T02:10:20.282Z,2.17
2022-12-25T02:12:47.073Z,2.10
2022-12-25T02:15:24.466Z,2.30
2022-12-25T02:18:09.329Z,4.60
2022-12-25T02:26:41.907Z,2.93
2022-12-25T02:29:34.192Z,2.10
2022-12-25T02:32:25.023Z,2.37
2022-12-25T02:35:26.379Z,2.50
2022-12-25T02:37:56.731Z,2.47
2022-12-25T02:40:30.209Z,2.20
2022-12-25T02:43:19.920Z,2.30
2022-12-25T02:46:40.208Z,2.40
2022-12-25T02:49:28.531Z,2.57
2022-12-25T02:52:19.265Z,2.70
2022-12-25T02:55:17.747Z,2.30
2022-12-25T02:58:06.352Z,2.30
2022-12-25T03:00:53.759Z,2.33
2022-12-25T03:03:38.553Z,2.50
2022-12-25T03:06:24.890Z,2.58
2022-12-25T03:08:54.468Z,2.40
2022-12-25T03:11:33.231Z,2.70
2022-12-25T03:14:25.799Z,5.45
2022-12-25T03:16:55.384Z,5.13
2022-12-25T03:19:47.067Z,3.65
2022-12-25T03:22:51.366Z,2.92
2022-12-25T03:25:37.450Z,2.30
2022-12-25T03:28:06.809Z,2.23
2022-12-25T03:30:59.811Z,2.20
2022-12-25T03:35:45.528Z,2.47
2022-12-25T03:38:41.557Z,2.27
2022-12-25T03:41:52.730Z,2.20
2022-12-25T03:45:42.822Z,2.30
2022-12-25T03:48:27.550Z,10.97
2022-12-25T03:51:18.393Z,13.13
2022-12-25T03:54:13.497Z,14.10
2022-12-25T03:56:58.572Z,8.40
2022-12-25T03:59:43.726Z,2.33
2022-12-25T04:02:29.353Z,5.30
2022-12-25T04:05:15.009Z,2.20
2022-12-25T04:08:01.411Z,2.40
2022-12-25T04:10:47.325Z,3.50
2022-12-25T04:21:41.858Z,3.53
2022-12-25T04:34:33.662Z,5.67
2022-12-25T04:50:25.020Z,3.60
2022-12-25T04:53:02.666Z,2.10
2022-12-25T04:55:29.043Z,2.10
2022-12-25T04:57:55.180Z,2.10
2022-12-25T05:00:21.469Z,2.20
2022-12-25T05:02:48.574Z,2.43
2022-12-25T05:05:15.188Z,2.10
2022-12-25T05:07:41.361Z,2.40
2022-12-25T05:10:08.798Z,2.70
2022-12-25T05:12:34.985Z,2.40
2022-12-25T05:15:01.342Z,2.40
2022-12-25T05:17:27.524Z,2.40
2022-12-25T05:19:53.755Z,2.80
2022-12-25T05:22:19.919Z,2.30
2022-12-25T05:24:46.230Z,2.40
2022-12-25T05:27:12.395Z,2.40
2022-12-25T05:29:38.553Z,2.30
2022-12-25T05:32:05.224Z,2.60
2022-12-25T05:34:32.068Z,2.60
2022-12-25T05:36:59.326Z,3.63
2022-12-25T05:39:26.027Z,2.77
2022-12-25T05:41:52.980Z,3.17
2022-12-25T05:44:19.325Z,2.30
2022-12-25T05:46:45.574Z,2.50
2022-12-25T05:49:11.870Z,2.60
2022-12-25T05:51:38.044Z,2.40
2022-12-25T05:54:04.652Z,2.53
2022-12-25T05:56:31.135Z,2.43
2022-12-25T05:58:57.513Z,2.33
2022-12-25T06:01:25.925Z,2.40
2022-12-25T06:03:52.418Z,2.80
2022-12-25T06:06:19.078Z,2.30
2022-12-25T06:08:45.236Z,2.20
2022-12-25T06:11:12.684Z,3.10
2022-12-25T06:13:40.062Z,6.37
2022-12-25T06:16:07.583Z,3.40
2022-12-25T06:18:41.373Z,2.20
2022-12-25T06:21:09.686Z,2.10
2022-12-25T06:23:36.798Z,2.20
2022-12-25T06:26:05.188Z,2.20
2022-12-25T06:28:31.593Z,2.30
2022-12-25T06:30:57.933Z,2.10
2022-12-25T06:33:24.237Z,3.80
2022-12-25T06:35:50.554Z,2.87
2022-12-25T06:38:16.720Z,2.40
2022-12-25T06:40:42.908Z,2.20
2022-12-25T06:43:09.531Z,2.70
2022-12-25T06:45:37.364Z,3.80
2022-12-25T06:48:04.092Z,7.33
2022-12-25T06:50:30.520Z,5.43
2022-12-25T06:52:56.679Z,2.73
2022-12-25T06:55:23.062Z,2.20
2022-12-25T06:57:49.208Z,2.10
2022-12-25T07:00:16.217Z,2.20
2022-12-25T07:02:44.359Z,2.10
2022-12-25T07:05:11.147Z,2.40
2022-12-25T07:07:38.712Z,8.77
2022-12-25T07:10:06.298Z,7.87
2022-12-25T07:12:32.862Z,6.30
2022-12-25T07:14:59.227Z,2.23
2022-12-25T07:17:25.396Z,5.00
2022-12-25T07:19:52.477Z,3.03
2022-12-25T07:22:19.020Z,2.00
2022-12-25T07:24:45.173Z,2.00
2022-12-25T07:27:11.640Z,2.03
2022-12-25T07:29:37.968Z,2.10
2022-12-25T07:32:05.525Z,4.57
2022-12-25T07:34:31.784Z,4.43
2022-12-25T07:36:58.023Z,2.97
2022-12-25T07:39:24.416Z,24.23
2022-12-25T07:41:50.625Z,30.23
2022-12-25T07:44:17.141Z,14.18
2022-12-25T07:46:43.573Z,21.30
2022-12-25T07:49:10.634Z,39.23
2022-12-25T07:51:36.810Z,38.73
2022-12-25T07:54:03.723Z,28.87
2022-12-25T07:56:29.955Z,23.10
2022-12-25T07:58:56.676Z,50.53
2022-12-25T08:01:24.067Z,17.47
2022-12-25T08:03:57.951Z,38.65
2022-12-25T08:06:30.229Z,45.20
2022-12-25T08:08:57.304Z,32.73
2022-12-25T08:11:23.513Z,37.87
2022-12-25T08:13:49.774Z,23.30
2022-12-25T08:16:17.231Z,23.65
2022-12-25T08:18:43.690Z,8.32
2022-12-25T08:21:11.638Z,6.40
2022-12-25T08:23:39.788Z,3.53
2022-12-25T08:26:07.707Z,2.30
2022-12-25T08:28:34.534Z,2.50
2022-12-25T08:31:21.706Z,2.75
2022-12-25T08:33:49.168Z,2.20
2022-12-25T08:36:16.903Z,2.40
2022-12-25T08:38:43.885Z,2.17
2022-12-25T08:41:11.472Z,2.10
2022-12-25T08:43:37.970Z,2.20
2022-12-25T08:46:05.811Z,2.20
2022-12-25T08:48:32.280Z,2.10
2022-12-25T08:50:58.623Z,2.28
2022-12-25T08:53:24.902Z,2.22
2022-12-25T08:56:04.568Z,2.25
2022-12-25T08:58:31.560Z,2.20
2022-12-25T09:00:57.800Z,2.30
2022-12-25T09:03:24.417Z,2.35
2022-12-25T09:05:51.722Z,2.20
2022-12-25T09:08:19.254Z,2.17
2022-12-25T09:10:45.801Z,2.30
2022-12-25T09:13:13.398Z,2.20
2022-12-25T09:15:40.925Z,2.50
2022-12-25T09:18:07.323Z,2.30
2022-12-25T09:20:33.831Z,2.40
2022-12-25T09:23:00.008Z,2.40
2022-12-25T09:25:26.597Z,2.30
2022-12-25T09:27:54.882Z,2.10
2022-12-25T09:30:22.633Z,2.35
2022-12-25T09:32:49.560Z,2.20
2022-12-25T09:35:18.175Z,2.30
2022-12-25T09:37:45.333Z,2.20
2022-12-25T09:40:19.022Z,2.22
2022-12-25T09:42:46.356Z,2.50
2022-12-25T09:45:20.807Z,2.33
2022-12-25T09:47:47.466Z,2.37
2022-12-25T09:50:33.037Z,2.30
2022-12-25T09:53:21.513Z,2.30
2022-12-25T10:02:39.279Z,2.20
2022-12-25T10:12:05.712Z,2.42
2022-12-25T10:15:05.726Z,2.47
2022-12-25T10:19:26.121Z,2.30
2022-12-25T10:21:55.426Z,2.47
2022-12-25T10:24:46.445Z,2.40
2022-12-25T10:27:31.460Z,2.40
2022-12-25T10:29:57.952Z,2.40
2022-12-25T10:32:24.588Z,2.40
2022-12-25T10:34:50.865Z,2.60
2022-12-25T10:37:17.504Z,2.90
2022-12-25T10:39:46.912Z,2.97
2022-12-25T10:42:46.500Z,3.20
2022-12-25T10:45:12.979Z,3.12
2022-12-25T10:47:42.601Z,3.20
2022-12-25T10:50:20.924Z,2.92
2022-12-25T10:53:08.673Z,2.65
2022-12-25T10:55:34.880Z,2.47
2022-12-25T10:58:01.519Z,2.40
2022-12-25T11:00:29.980Z,2.50
2022-12-25T11:02:57.910Z,2.42
2022-12-25T11:05:30.212Z,2.45
2022-12-25T11:07:58.193Z,2.50
2022-12-25T11:10:51.003Z,2.58
2022-12-25T11:13:19.896Z,2.60
2022-12-25T11:15:48.378Z,2.40
2022-12-25T11:18:47.690Z,2.60
2022-12-25T11:21:34.794Z,2.70
2022-12-25T11:24:06.384Z,2.37
2022-12-25T11:30:07.031Z,2.53
2022-12-25T11:32:46.985Z,2.40
2022-12-25T11:35:15.451Z,2.50
2022-12-25T11:37:49.773Z,2.40
2022-12-25T11:40:36.908Z,2.50
2022-12-25T11:43:18.230Z,2.35
2022-12-25T11:45:48.182Z,2.47
2022-12-25T11:48:21.703Z,2.60
2022-12-25T11:50:51.510Z,2.45
2022-12-25T11:55:22.008Z,2.78
2022-12-25T11:57:54.624Z,2.47
2022-12-25T12:00:21.094Z,2.60
2022-12-25T12:03:43.920Z,2.50
2022-12-25T12:06:18.660Z,2.40
2022-12-25T12:08:46.861Z,2.70
2022-12-25T12:11:39.748Z,2.62
2022-12-25T12:14:58.926Z,2.50
2022-12-25T12:17:25.100Z,2.37
2022-12-25T12:19:52.202Z,2.40
2022-12-25T12:22:23.868Z,2.60
2022-12-25T12:24:55.628Z,2.70
2022-12-25T12:28:04.868Z,2.62
2022-12-25T12:30:34.342Z,2.70
2022-12-25T12:33:05.097Z,2.65
2022-12-25T12:35:37.002Z,2.78
2022-12-25T12:38:06.324Z,2.70
2022-12-25T12:41:22.121Z,2.70
2022-12-25T12:43:58.977Z,2.50
2022-12-25T12:46:31.303Z,2.67
2022-12-25T12:49:21.090Z,2.55
2022-12-25T12:51:47.712Z,2.55
2022-12-25T12:54:22.319Z,2.50
2022-12-25T12:57:58.491Z,2.60
2022-12-25T13:00:25.291Z,2.37
2022-12-25T13:04:47.554Z,2.70
2022-12-25T13:07:32.020Z,2.55
2022-12-25T13:10:22.194Z,2.70
2022-12-25T13:12:59.363Z,2.70
2022-12-25T13:15:28.297Z,2.70
2022-12-25T13:17:57.286Z,2.62
2022-12-25T13:20:58.924Z,2.60
2022-12-25T13:23:30.182Z,2.70
2022-12-25T13:25:58.501Z,2.60
2022-12-25T13:28:30.637Z,2.60
2022-12-25T13:31:19.221Z,2.50
2022-12-25T13:33:57.543Z,2.60
2022-12-25T13:36:24.837Z,2.70
2022-12-25T13:38:51.696Z,2.60
2022-12-25T13:41:37.550Z,2.50
2022-12-25T13:44:10.248Z,2.40
2022-12-25T13:46:36.590Z,2.40
2022-12-25T13:49:09.358Z,2.30
2022-12-25T13:51:37.016Z,2.50
2022-12-25T13:54:05.054Z,2.42
2022-12-25T13:56:31.730Z,2.60
2022-12-25T13:58:58.157Z,2.70
2022-12-25T14:01:25.464Z,2.83
2022-12-25T14:03:52.479Z,2.40
2022-12-25T14:06:30.153Z,2.50
2022-12-25T14:08:58.157Z,2.35
2022-12-25T14:11:27.870Z,2.40
2022-12-25T14:13:59.379Z,2.10
2022-12-25T14:16:26.373Z,2.00
2022-12-25T14:19:03.212Z,2.20
2022-12-25T14:21:33.148Z,2.10
2022-12-25T14:23:59.752Z,2.00
2022-12-25T14:26:29.041Z,2.15
2022-12-25T14:29:35.117Z,2.10
2022-12-25T14:32:05.048Z,2.08
2022-12-25T14:34:31.247Z,2.20
2022-12-25T14:36:59.136Z,2.20
2022-12-25T14:39:36.818Z,2.17
2022-12-25T14:42:20.630Z,2.20
2022-12-25T14:45:03.881Z,2.10
2022-12-25T14:47:31.012Z,2.30
2022-12-25T14:49:57.875Z,2.20
2022-12-25T14:52:38.514Z,2.20
2022-12-25T14:55:07.993Z,2.20
2022-12-25T14:57:38.581Z,2.20
2022-12-25T15:00:26.532Z,2.00
2022-12-25T15:02:55.067Z,2.05
2022-12-25T15:05:37.796Z,2.22
2022-12-25T15:08:25.040Z,1.92
2022-12-25T15:11:01.140Z,2.22
2022-12-25T15:13:29.978Z,2.10
2022-12-25T15:16:12.571Z,2.30
2022-12-25T15:18:41.537Z,2.10
2022-12-25T15:21:36.323Z,2.40
2022-12-25T15:24:04.855Z,2.25
2022-12-25T15:26:32.920Z,2.20
2022-12-25T15:29:00.255Z,2.22
2022-12-25T15:31:31.113Z,2.30
2022-12-25T15:33:59.914Z,2.40
2022-12-25T15:36:27.806Z,2.20
2022-12-25T15:38:56.101Z,2.33
2022-12-25T15:42:03.515Z,2.27
2022-12-25T15:44:29.877Z,2.20
2022-12-25T15:46:57.806Z,2.17
2022-12-25T15:49:24.466Z,2.22
2022-12-25T15:51:50.947Z,2.20
2022-12-25T15:54:18.153Z,2.35
2022-12-25T15:56:55.219Z,2.15
2022-12-25T15:59:22.295Z,2.12
2022-12-25T16:01:50.998Z,2.00
2022-12-25T16:04:18.016Z,2.17
2022-12-25T16:06:45.218Z,2.12
2022-12-25T16:09:11.747Z,2.33
2022-12-25T16:11:38.247Z,2.12
2022-12-25T16:14:04.895Z,2.20
2022-12-25T16:16:31.640Z,2.20
2022-12-25T16:18:58.333Z,2.22
2022-12-25T16:21:24.805Z,2.08
2022-12-25T16:23:52.453Z,2.10
2022-12-25T16:26:19.053Z,2.10
2022-12-25T16:28:46.026Z,2.20
2022-12-25T16:31:12.754Z,2.10
2022-12-25T16:33:39.037Z,2.10
2022-12-25T16:36:06.618Z,2.00
2022-12-25T16:38:33.613Z,2.10
2022-12-25T16:41:00.332Z,2.10
2022-12-25T16:43:27.732Z,2.10
2022-12-25T16:45:54.320Z,2.20
2022-12-25T16:48:20.964Z,1.98
2022-12-25T16:50:47.808Z,2.20
2022-12-25T16:53:14.441Z,2.10
2022-12-25T16:55:41.517Z,2.20
2022-12-25T16:58:08.121Z,2.10
2022-12-25T17:00:34.471Z,2.20
2022-12-25T17:03:01.995Z,2.10
2022-12-25T17:05:29.087Z,2.22
2022-12-25T17:07:55.796Z,2.12
2022-12-25T17:10:22.630Z,2.10
2022-12-25T17:12:50.205Z,2.20
2022-12-25T17:15:17.061Z,2.30
2022-12-25T17:17:43.983Z,2.20
2022-12-25T17:20:11.756Z,2.30
2022-12-25T17:22:38.603Z,2.10
2022-12-25T17:25:06.194Z,2.20
2022-12-25T17:27:32.777Z,2.20
2022-12-25T17:30:00.199Z,2.10
2022-12-25T17:32:26.839Z,2.03
2022-12-25T17:34:53.345Z,2.00
2022-12-25T17:37:20.051Z,2.20
2022-12-25T17:39:47.251Z,2.20
2022-12-25T17:42:13.832Z,2.20
2022-12-25T17:44:40.674Z,2.20
2022-12-25T17:47:07.630Z,2.17
2022-12-25T17:49:36.821Z,2.10
2022-12-25T17:52:03.963Z,2.20
2022-12-25T17:54:32.058Z,2.17
2022-12-25T17:56:58.613Z,2.30
2022-12-25T17:59:28.931Z,2.20
2022-12-25T18:01:56.526Z,2.03
2022-12-25T18:04:23.892Z,2.03
2022-12-25T18:06:50.324Z,2.15
2022-12-25T18:09:18.322Z,2.20
2022-12-25T18:11:45.350Z,2.10
2022-12-25T18:14:13.281Z,2.20
2022-12-25T18:16:41.413Z,2.30
2022-12-25T18:19:09.672Z,2.30
2022-12-25T18:21:36.044Z,2.30
2022-12-25T18:24:04.325Z,2.30
2022-12-25T18:26:32.456Z,2.10
2022-12-25T18:28:58.823Z,2.20
2022-12-25T18:31:27.102Z,2.20
2022-12-25T18:33:55.156Z,2.30
2022-12-25T18:36:23.862Z,2.30
2022-12-25T18:38:51.377Z,2.30
2022-12-25T18:41:19.843Z,2.25
2022-12-25T18:43:53.736Z,2.42
2022-12-25T18:46:23.609Z,2.37
2022-12-25T18:48:50.307Z,2.20
2022-12-25T18:51:17.659Z,2.30
2022-12-25T18:53:44.858Z,2.35
2022-12-25T18:56:16.360Z,2.30
2022-12-25T18:58:43.717Z,2.30
2022-12-25T19:01:16.911Z,2.30
2022-12-25T19:03:43.963Z,2.20
2022-12-25T19:06:25.349Z,2.30
2022-12-25T19:08:54.135Z,2.35
2022-12-25T19:11:22.722Z,2.30
2022-12-25T19:13:49.869Z,2.30
2022-12-25T19:16:17.106Z,2.22
2022-12-25T19:18:48.458Z,2.40
2022-12-25T19:21:16.166Z,2.30
2022-12-25T19:23:44.343Z,2.33
2022-12-25T19:26:13.518Z,2.30
2022-12-25T19:28:40.461Z,2.33
2022-12-25T19:31:07.984Z,2.30
2022-12-25T19:33:36.180Z,2.37
2022-12-25T19:36:06.772Z,2.30
2022-12-25T19:38:33.731Z,2.30
2022-12-25T19:41:10.513Z,2.40
2022-12-25T19:43:39.466Z,2.20
2022-12-25T19:46:14.363Z,2.40
2022-12-25T19:48:43.328Z,2.28
2022-12-25T19:51:18.756Z,2.30
2022-12-25T19:53:46.287Z,2.40
2022-12-25T19:56:13.659Z,2.30
2022-12-25T19:58:41.446Z,2.28
2022-12-25T20:01:12.162Z,2.33
2022-12-25T20:03:45.781Z,2.20
2022-12-25T20:06:21.387Z,2.20
2022-12-25T20:08:49.240Z,2.30
2022-12-25T20:11:17.261Z,2.30
2022-12-25T20:13:45.155Z,2.20
2022-12-25T20:16:13.685Z,2.20
2022-12-25T20:18:40.825Z,2.20
2022-12-25T20:21:14.672Z,2.20
2022-12-25T20:23:47.725Z,2.30
2022-12-25T20:26:16.735Z,2.17
2022-12-25T20:28:44.659Z,2.10
2022-12-25T20:31:20.839Z,2.30
2022-12-25T20:33:49.144Z,2.30
2022-12-25T20:36:21.279Z,2.30
2022-12-25T20:38:49.771Z,2.20
2022-12-25T20:41:28.519Z,2.35
2022-12-25T20:43:56.434Z,2.30
2022-12-25T20:46:25.704Z,2.30
2022-12-25T20:48:53.757Z,2.47
2022-12-25T20:51:22.331Z,2.35
2022-12-25T20:53:49.371Z,2.30
2022-12-25T20:56:19.879Z,2.40
2022-12-25T20:58:51.618Z,2.23
2022-12-25T21:01:19.859Z,2.40
2022-12-25T21:03:48.600Z,2.50
2022-12-25T21:06:16.141Z,2.30
2022-12-25T21:08:44.068Z,2.40
2022-12-25T21:11:12.623Z,2.30
2022-12-25T21:13:41.789Z,2.40
2022-12-25T21:16:11.672Z,2.40
2022-12-25T21:18:40.115Z,2.30
2022-12-25T21:21:08.008Z,2.30
2022-12-25T21:23:38.116Z,2.30
2022-12-25T21:26:15.303Z,2.40
2022-12-25T21:28:45.474Z,2.30
2022-12-25T21:31:16.444Z,2.30
2022-12-25T21:33:57.277Z,2.20
